TimeMST,TemperatureF,Dew PointF,Humidity,Sea Level PressureIn,VisibilityMPH,Wind Direction,Wind SpeedMPH,Gust SpeedMPH,PrecipitationIn,Events,Conditions,WindDirDegrees,DateUTC
12:51 AM,34.0,10.9,38,30.27,10.0,WSW,3.5,-,N/A,,Clear,240,2013-01-15 07:51:00
1:51 AM,33.8,10.4,38,30.28,10.0,West,3.5,-,N/A,,Clear,280,2013-01-15 08:51:00
2:51 AM,30.0,10.9,45,30.32,10.0,WSW,4.6,-,N/A,,Clear,240,2013-01-15 09:51:00
3:51 AM,28.9,10.0,45,30.32,10.0,SW,5.8,-,N/A,,Clear,220,2013-01-15 10:51:00
4:51 AM,30.2,6.8,37,30.32,10.0,WSW,3.5,-,N/A,,Partly Cloudy,240,2013-01-15 11:51:00
5:51 AM,30.9,6.1,35,30.34,10.0,Calm,Calm,-,N/A,,Partly Cloudy,0,2013-01-15 12:51:00
6:51 AM,30.9,5.0,33,30.36,10.0,Calm,Calm,-,N/A,,Clear,0,2013-01-15 13:51:00
7:51 AM,30.9,9.0,40,30.39,10.0,Calm,Calm,-,N/A,,Clear,0,2013-01-15 14:51:00
8:51 AM,35.1,3.0,26,30.42,10.0,SE,3.5,-,N/A,,Clear,130,2013-01-15 15:51:00
9:51 AM,37.9,-0.0,20,30.43,10.0,Calm,Calm,-,N/A,,Clear,0,2013-01-15 16:51:00
10:51 AM,39.0,-2.0,18,30.43,10.0,West,3.5,-,N/A,,Partly Cloudy,270,2013-01-15 17:51:00
11:51 AM,44.6,-2.2,14,30.40,10.0,Variable,4.6,-,N/A,,Partly Cloudy,0,2013-01-15 18:51:00
12:51 PM,45.0,-4.0,13,30.37,10.0,Calm,Calm,-,N/A,,Partly Cloudy,0,2013-01-15 19:51:00
1:51 PM,48.2,-4.0,11,30.34,10.0,West,6.9,-,N/A,,Partly Cloudy,270,2013-01-15 20:51:00
2:51 PM,50.0,-4.0,11,30.32,10.0,SW,6.9,-,N/A,,Partly Cloudy,220,2013-01-15 21:51:00
3:51 PM,50.0,-4.0,11,30.31,10.0,South,4.6,-,N/A,,Partly Cloudy,190,2013-01-15 22:51:00
4:51 PM,51.1,-2.9,11,30.33,10.0,SW,6.9,-,N/A,,Scattered Clouds,230,2013-01-15 23:51:00
5:51 PM,48.9,-2.0,12,30.34,10.0,West,10.4,-,N/A,,Scattered Clouds,280,2013-01-16 00:51:00
6:51 PM,48.0,-0.9,13,30.35,10.0,West,10.4,-,N/A,,Scattered Clouds,280,2013-01-16 01:51:00
7:51 PM,45.0,-0.0,15,30.36,10.0,SW,5.8,-,N/A,,Partly Cloudy,230,2013-01-16 02:51:00
8:51 PM,43.0,1.9,18,30.36,10.0,Calm,Calm,-,N/A,,Clear,0,2013-01-16 03:51:00
9:51 PM,44.1,-0.0,16,30.35,10.0,Calm,Calm,-,N/A,,Clear,0,2013-01-16 04:51:00
10:51 PM,41.0,3.9,21,30.37,10.0,ESE,3.5,-,N/A,,Clear,110,2013-01-16 05:51:00
11:51 PM,39.0,7.0,27,30.38,10.0,Calm,Calm,-,N/A,,Clear,0,2013-01-16 06:51:00